sensor_id;sensor_type;location;lat;lon;timestamp;pressure;altitude;pressure_sealevel;temperature;humidity
17635;BME280;8936;49.010;12.120;2022-08-01T00:00:29;97713.56;;;27.03;59.51
17635;BME280;8936;49.010;12.120;2022-08-01T00:02:55;97715.41;;;26.96;59.57
17635;BME280;8936;49.010;12.120;2022-08-01T00:05:22;97709.66;;;26.74;60.58
17635;BME280;8936;49.010;12.120;2022-08-01T00:07:48;97707.84;;;26.82;60.24
17635;BME280;8936;49.010;12.120;2022-08-01T00:10:15;97707.19;;;26.96;59.67
17635;BME280;8936;49.010;12.120;2022-08-01T00:12:43;97706.44;;;26.99;59.46
17635;BME280;8936;49.010;12.120;2022-08-01T00:15:11;97709.72;;;26.78;58.88
17635;BME280;8936;49.010;12.120;2022-08-01T00:17:37;97708.41;;;26.68;59.35
17635;BME280;8936;49.010;12.120;2022-08-01T00:20:05;97705.94;;;26.56;60.19
17635;BME280;8936;49.010;12.120;2022-08-01T00:22:32;97701.97;;;26.54;60.01
17635;BME280;8936;49.010;12.120;2022-08-01T00:24:58;97705.19;;;26.59;59.70
17635;BME280;8936;49.010;12.120;2022-08-01T00:27:25;97698.97;;;26.62;59.72
17635;BME280;8936;49.010;12.120;2022-08-01T00:29:53;97699.66;;;26.56;59.92
17635;BME280;8936;49.010;12.120;2022-08-01T00:32:19;97702.59;;;26.70;59.62
17635;BME280;8936;49.010;12.120;2022-08-01T00:34:45;97706.88;;;26.67;59.52
17635;BME280;8936;49.010;12.120;2022-08-01T00:37:12;97705.88;;;26.53;60.20
17635;BME280;8936;49.010;12.120;2022-08-01T00:39:38;97698.03;;;26.51;60.47
17635;BME280;8936;49.010;12.120;2022-08-01T00:42:05;97697.47;;;26.12;62.36
17635;BME280;8936;49.010;12.120;2022-08-01T00:44:32;97700.94;;;26.09;63.04
17635;BME280;8936;49.010;12.120;2022-08-01T00:47:00;97698.69;;;25.89;64.70
17635;BME280;8936;49.010;12.120;2022-08-01T00:49:26;97699.22;;;25.71;66.61
17635;BME280;8936;49.010;12.120;2022-08-01T00:51:53;97705.19;;;25.77;66.83
17635;BME280;8936;49.010;12.120;2022-08-01T00:54:19;97702.31;;;25.70;68.15
17635;BME280;8936;49.010;12.120;2022-08-01T00:56:45;97697.09;;;25.88;67.23
17635;BME280;8936;49.010;12.120;2022-08-01T00:59:12;97693.25;;;26.15;65.52
17635;BME280;8936;49.010;12.120;2022-08-01T01:01:40;97691.59;;;26.37;64.70
17635;BME280;8936;49.010;12.120;2022-08-01T01:04:07;97690.13;;;26.46;64.32
17635;BME280;8936;49.010;12.120;2022-08-01T01:06:38;97682.41;;;26.52;64.06
17635;BME280;8936;49.010;12.120;2022-08-01T01:09:17;97685.59;;;26.57;63.99
17635;BME280;8936;49.010;12.120;2022-08-01T01:11:47;97686.28;;;26.51;64.32
17635;BME280;8936;49.010;12.120;2022-08-01T01:14:18;97687.44;;;26.50;64.41
17635;BME280;8936;49.010;12.120;2022-08-01T01:16:47;97682.09;;;26.27;65.88
17635;BME280;8936;49.010;12.120;2022-08-01T01:19:20;97693.59;;;26.13;66.98
17635;BME280;8936;49.010;12.120;2022-08-01T01:21:53;97690.50;;;25.62;71.15
17635;BME280;8936;49.010;12.120;2022-08-01T01:24:26;97694.13;;;25.96;69.11
17635;BME280;8936;49.010;12.120;2022-08-01T01:26:57;97701.38;;;26.11;67.96
17635;BME280;8936;49.010;12.120;2022-08-01T01:29:28;97701.19;;;26.23;67.18
17635;BME280;8936;49.010;12.120;2022-08-01T01:31:57;97700.63;;;26.41;66.22
17635;BME280;8936;49.010;12.120;2022-08-01T01:34:25;97701.59;;;26.52;65.37
17635;BME280;8936;49.010;12.120;2022-08-01T01:36:54;97691.78;;;26.51;65.34
17635;BME280;8936;49.010;12.120;2022-08-01T01:39:20;97695.72;;;26.53;65.32
17635;BME280;8936;49.010;12.120;2022-08-01T01:41:47;97689.50;;;26.56;65.22
17635;BME280;8936;49.010;12.120;2022-08-01T01:44:14;97692.66;;;26.58;65.18
17635;BME280;8936;49.010;12.120;2022-08-01T01:46:42;97689.59;;;26.63;64.85
17635;BME280;8936;49.010;12.120;2022-08-01T01:49:09;97691.19;;;26.64;64.82
17635;BME280;8936;49.010;12.120;2022-08-01T01:51:36;97689.53;;;26.60;64.97
17635;BME280;8936;49.010;12.120;2022-08-01T01:54:04;97688.38;;;26.61;64.99
17635;BME280;8936;49.010;12.120;2022-08-01T01:56:30;97684.84;;;26.60;65.05
17635;BME280;8936;49.010;12.120;2022-08-01T01:58:59;97682.47;;;26.55;65.11
17635;BME280;8936;49.010;12.120;2022-08-01T02:01:27;97692.94;;;26.50;65.45
17635;BME280;8936;49.010;12.120;2022-08-01T02:03:55;97683.19;;;26.52;65.48
17635;BME280;8936;49.010;12.120;2022-08-01T02:06:22;97690.28;;;26.57;65.28
17635;BME280;8936;49.010;12.120;2022-08-01T02:08:49;97682.31;;;26.45;65.71
17635;BME280;8936;49.010;12.120;2022-08-01T02:11:18;97692.56;;;26.51;65.57
17635;BME280;8936;49.010;12.120;2022-08-01T02:13:46;97700.78;;;26.51;65.79
17635;BME280;8936;49.010;12.120;2022-08-01T02:16:13;97694.06;;;26.45;65.98
17635;BME280;8936;49.010;12.120;2022-08-01T02:18:42;97691.78;;;26.51;66.18
17635;BME280;8936;49.010;12.120;2022-08-01T02:21:12;97702.69;;;26.47;66.28
17635;BME280;8936;49.010;12.120;2022-08-01T02:23:39;97693.03;;;26.57;65.92
17635;BME280;8936;49.010;12.120;2022-08-01T02:26:07;97694.22;;;26.59;65.75
17635;BME280;8936;49.010;12.120;2022-08-01T02:28:36;97702.44;;;26.59;65.58
17635;BME280;8936;49.010;12.120;2022-08-01T02:31:04;97705.09;;;26.52;66.16
17635;BME280;8936;49.010;12.120;2022-08-01T02:33:33;97700.78;;;26.51;66.54
17635;BME280;8936;49.010;12.120;2022-08-01T02:36:01;97699.28;;;26.57;66.17
17635;BME280;8936;49.010;12.120;2022-08-01T02:38:30;97703.94;;;26.53;66.28
17635;BME280;8936;49.010;12.120;2022-08-01T02:40:58;97703.09;;;26.49;66.74
17635;BME280;8936;49.010;12.120;2022-08-01T02:43:26;97704.97;;;26.42;67.38
17635;BME280;8936;49.010;12.120;2022-08-01T02:45:56;97704.97;;;26.42;67.94
17635;BME280;8936;49.010;12.120;2022-08-01T02:48:26;97708.50;;;26.42;68.23
17635;BME280;8936;49.010;12.120;2022-08-01T02:50:54;97707.66;;;26.38;68.57
17635;BME280;8936;49.010;12.120;2022-08-01T02:53:21;97707.66;;;26.38;68.84
17635;BME280;8936;49.010;12.120;2022-08-01T02:55:50;97717.16;;;26.48;68.37
17635;BME280;8936;49.010;12.120;2022-08-01T02:58:17;97711.22;;;26.42;68.77
17635;BME280;8936;49.010;12.120;2022-08-01T03:00:44;97722.94;;;26.39;69.39
17635;BME280;8936;49.010;12.120;2022-08-01T03:03:11;97726.47;;;26.43;68.94
17635;BME280;8936;49.010;12.120;2022-08-01T03:05:38;97720.53;;;26.38;69.25
17635;BME280;8936;49.010;12.120;2022-08-01T03:08:06;97713.53;;;26.40;69.68
17635;BME280;8936;49.010;12.120;2022-08-01T03:10:32;97717.75;;;26.34;70.27
17635;BME280;8936;49.010;12.120;2022-08-01T03:13:01;97721.28;;;26.35;70.61
17635;BME280;8936;49.010;12.120;2022-08-01T03:15:29;97721.63;;;26.29;70.88
17635;BME280;8936;49.010;12.120;2022-08-01T03:17:57;97720.44;;;26.30;70.98
17635;BME280;8936;49.010;12.120;2022-08-01T03:20:25;97727.03;;;26.26;71.29
17635;BME280;8936;49.010;12.120;2022-08-01T03:22:53;97729.78;;;26.26;70.86
17635;BME280;8936;49.010;12.120;2022-08-01T03:25:20;97728.63;;;26.27;71.09
17635;BME280;8936;49.010;12.120;2022-08-01T03:27:50;97720.50;;;26.34;69.96
17635;BME280;8936;49.010;12.120;2022-08-01T03:30:19;97727.59;;;26.39;69.08
17635;BME280;8936;49.010;12.120;2022-08-01T03:32:46;97729.59;;;26.42;68.10
17635;BME280;8936;49.010;12.120;2022-08-01T03:35:12;97729.94;;;26.37;67.72
17635;BME280;8936;49.010;12.120;2022-08-01T03:37:41;97734.63;;;26.36;66.78
17635;BME280;8936;49.010;12.120;2022-08-01T03:40:09;97743.13;;;26.31;66.12
17635;BME280;8936;49.010;12.120;2022-08-01T03:42:37;97733.59;;;26.21;65.64
17635;BME280;8936;49.010;12.120;2022-08-01T03:45:06;97736.47;;;26.28;65.01
17635;BME280;8936;49.010;12.120;2022-08-01T03:47:35;97740.00;;;26.29;64.29
17635;BME280;8936;49.010;12.120;2022-08-01T03:50:03;97746.63;;;26.28;63.66
17635;BME280;8936;49.010;12.120;2022-08-01T03:52:30;97751.69;;;26.26;63.36
17635;BME280;8936;49.010;12.120;2022-08-01T03:54:58;97749.28;;;26.24;62.90
17635;BME280;8936;49.010;12.120;2022-08-01T03:57:25;97743.88;;;26.28;62.51
17635;BME280;8936;49.010;12.120;2022-08-01T03:59:54;97741.13;;;26.28;62.45
17635;BME280;8936;49.010;12.120;2022-08-01T04:02:21;97751.72;;;26.29;61.77
17635;BME280;8936;49.010;12.120;2022-08-01T04:04:49;97747.75;;;26.23;61.84
17635;BME280;8936;49.010;12.120;2022-08-01T04:07:21;97753.72;;;26.33;61.46
17635;BME280;8936;49.010;12.120;2022-08-01T04:09:47;97751.56;;;26.19;61.41
17635;BME280;8936;49.010;12.120;2022-08-01T04:12:14;97750.72;;;26.15;61.21
17635;BME280;8936;49.010;12.120;2022-08-01T04:14:40;97754.00;;;26.24;60.98
17635;BME280;8936;49.010;12.120;2022-08-01T04:17:06;97753.16;;;26.20;61.01
17635;BME280;8936;49.010;12.120;2022-08-01T04:19:33;97758.31;;;26.25;60.60
17635;BME280;8936;49.010;12.120;2022-08-01T04:22:00;97758.63;;;26.20;60.74
17635;BME280;8936;49.010;12.120;2022-08-01T04:24:27;97760.22;;;26.21;60.53
17635;BME280;8936;49.010;12.120;2022-08-01T04:26:55;97767.31;;;26.25;60.26
17635;BME280;8936;49.010;12.120;2022-08-01T04:29:23;97769.63;;;26.23;60.13
17635;BME280;8936;49.010;12.120;2022-08-01T04:31:50;97775.00;;;26.16;59.99
17635;BME280;8936;49.010;12.120;2022-08-01T04:34:20;97765.91;;;26.12;60.09
17635;BME280;8936;49.010;12.120;2022-08-01T04:36:47;97769.88;;;26.15;60.17
17635;BME280;8936;49.010;12.120;2022-08-01T04:39:15;97772.69;;;25.96;60.43
17635;BME280;8936;49.010;12.120;2022-08-01T04:41:42;97777.66;;;26.13;59.89
17635;BME280;8936;49.010;12.120;2022-08-01T04:44:11;97781.19;;;26.13;60.11
17635;BME280;8936;49.010;12.120;2022-08-01T04:46:38;97788.97;;;26.11;60.19
17635;BME280;8936;49.010;12.120;2022-08-01T04:49:06;97778.44;;;26.13;60.20
17635;BME280;8936;49.010;12.120;2022-08-01T04:51:34;97784.53;;;26.26;59.53
17635;BME280;8936;49.010;12.120;2022-08-01T04:54:00;97784.59;;;26.29;59.54
17635;BME280;8936;49.010;12.120;2022-08-01T04:56:28;97791.84;;;26.18;59.87
17635;BME280;8936;49.010;12.120;2022-08-01T04:58:55;97798.09;;;26.19;59.76
17635;BME280;8936;49.010;12.120;2022-08-01T05:01:35;97804.84;;;26.25;59.58
17635;BME280;8936;49.010;12.120;2022-08-01T05:04:01;97808.25;;;26.18;59.84
17635;BME280;8936;49.010;12.120;2022-08-01T05:06:28;97815.38;;;26.23;59.88
17635;BME280;8936;49.010;12.120;2022-08-01T05:08:54;97806.31;;;26.19;60.06
17635;BME280;8936;49.010;12.120;2022-08-01T05:11:20;97812.53;;;26.16;60.38
17635;BME280;8936;49.010;12.120;2022-08-01T05:13:48;97818.69;;;26.13;60.22
17635;BME280;8936;49.010;12.120;2022-08-01T05:16:16;97826.56;;;26.14;60.08
17635;BME280;8936;49.010;12.120;2022-08-01T05:18:42;97817.91;;;26.12;60.65
17635;BME280;8936;49.010;12.120;2022-08-01T05:21:09;97831.25;;;26.14;60.55
17635;BME280;8936;49.010;12.120;2022-08-01T05:23:35;97829.81;;;26.20;60.49
17635;BME280;8936;49.010;12.120;2022-08-01T05:26:01;97820.13;;;26.26;60.27
17635;BME280;8936;49.010;12.120;2022-08-01T05:28:29;97824.06;;;26.28;60.29
17635;BME280;8936;49.010;12.120;2022-08-01T05:30:57;97825.19;;;26.24;60.16
17635;BME280;8936;49.010;12.120;2022-08-01T05:33:24;97836.06;;;26.20;60.64
17635;BME280;8936;49.010;12.120;2022-08-01T05:35:50;97842.81;;;26.26;60.51
17635;BME280;8936;49.010;12.120;2022-08-01T05:38:16;97834.91;;;26.21;60.42
17635;BME280;8936;49.010;12.120;2022-08-01T05:40:43;97838.50;;;26.25;61.17
17635;BME280;8936;49.010;12.120;2022-08-01T05:43:09;97834.78;;;26.14;61.20
17635;BME280;8936;49.010;12.120;2022-08-01T05:45:35;97844.03;;;26.29;61.33
17635;BME280;8936;49.010;12.120;2022-08-01T05:48:03;97838.47;;;26.48;60.54
17635;BME280;8936;49.010;12.120;2022-08-01T05:50:30;97842.81;;;26.53;60.73
17635;BME280;8936;49.010;12.120;2022-08-01T05:52:56;97842.66;;;26.68;60.65
17635;BME280;8936;49.010;12.120;2022-08-01T05:55:22;97844.16;;;26.89;60.44
17635;BME280;8936;49.010;12.120;2022-08-01T05:57:49;97845.56;;;26.79;60.91
17635;BME280;8936;49.010;12.120;2022-08-01T06:00:15;97840.69;;;26.92;60.60
17635;BME280;8936;49.010;12.120;2022-08-01T06:02:42;97848.97;;;26.99;61.40
17635;BME280;8936;49.010;12.120;2022-08-01T06:05:10;97848.41;;;27.16;60.99
17635;BME280;8936;49.010;12.120;2022-08-01T06:07:36;97840.34;;;27.30;61.03
17635;BME280;8936;49.010;12.120;2022-08-01T06:10:05;97841.59;;;27.36;61.50
17635;BME280;8936;49.010;12.120;2022-08-01T06:12:32;97839.53;;;27.26;61.14
17635;BME280;8936;49.010;12.120;2022-08-01T06:14:58;97845.59;;;27.42;61.28
17635;BME280;8936;49.010;12.120;2022-08-01T06:17:24;97842.69;;;27.61;60.94
17635;BME280;8936;49.010;12.120;2022-08-01T06:19:51;97848.69;;;27.74;60.37
17635;BME280;8936;49.010;12.120;2022-08-01T06:22:18;97858.53;;;27.75;60.59
17635;BME280;8936;49.010;12.120;2022-08-01T06:24:45;97848.78;;;27.81;60.14
17635;BME280;8936;49.010;12.120;2022-08-01T06:27:11;97858.41;;;27.64;60.83
17635;BME280;8936;49.010;12.120;2022-08-01T06:29:38;97860.88;;;27.76;60.88
17635;BME280;8936;49.010;12.120;2022-08-01T06:32:04;97859.41;;;27.86;60.58
17635;BME280;8936;49.010;12.120;2022-08-01T06:34:31;97853.28;;;28.00;60.48
17635;BME280;8936;49.010;12.120;2022-08-01T06:36:57;97861.25;;;28.12;60.39
17635;BME280;8936;49.010;12.120;2022-08-01T06:39:25;97860.03;;;28.06;60.38
17635;BME280;8936;49.010;12.120;2022-08-01T06:41:51;97865.41;;;27.99;60.76
17635;BME280;8936;49.010;12.120;2022-08-01T06:44:18;97864.63;;;27.98;61.14
17635;BME280;8936;49.010;12.120;2022-08-01T06:46:44;97865.59;;;28.13;61.11
17635;BME280;8936;49.010;12.120;2022-08-01T06:49:10;97854.66;;;28.20;60.54
17635;BME280;8936;49.010;12.120;2022-08-01T06:51:37;97864.66;;;28.46;60.58
17635;BME280;8936;49.010;12.120;2022-08-01T06:54:03;97862.88;;;28.67;60.11
17635;BME280;8936;49.010;12.120;2022-08-01T06:56:31;97871.97;;;28.78;59.29
17635;BME280;8936;49.010;12.120;2022-08-01T06:59:00;97857.94;;;28.39;60.07
17635;BME280;8936;49.010;12.120;2022-08-01T07:01:26;97860.34;;;28.45;60.24
17635;BME280;8936;49.010;12.120;2022-08-01T07:03:53;97863.81;;;28.34;60.02
17635;BME280;8936;49.010;12.120;2022-08-01T07:06:19;97866.25;;;28.03;61.11
17635;BME280;8936;49.010;12.120;2022-08-01T07:08:46;97859.78;;;28.21;61.27
17635;BME280;8936;49.010;12.120;2022-08-01T07:11:12;97868.28;;;28.60;60.42
17635;BME280;8936;49.010;12.120;2022-08-01T07:13:40;97870.22;;;28.53;61.05
17635;BME280;8936;49.010;12.120;2022-08-01T07:16:06;97875.09;;;28.73;59.96
17635;BME280;8936;49.010;12.120;2022-08-01T07:18:32;97871.25;;;28.88;59.79
17635;BME280;8936;49.010;12.120;2022-08-01T07:20:59;97864.66;;;29.04;59.01
17635;BME280;8936;49.010;12.120;2022-08-01T07:23:25;97871.81;;;29.15;59.15
17635;BME280;8936;49.010;12.120;2022-08-01T07:25:51;97872.72;;;28.68;59.39
17635;BME280;8936;49.010;12.120;2022-08-01T07:28:18;97882.53;;;28.69;60.34
17635;BME280;8936;49.010;12.120;2022-08-01T07:30:46;97877.59;;;28.45;61.06
17635;BME280;8936;49.010;12.120;2022-08-01T07:33:12;97886.84;;;28.67;61.14
17635;BME280;8936;49.010;12.120;2022-08-01T07:35:39;97887.53;;;28.60;61.00
17635;BME280;8936;49.010;12.120;2022-08-01T07:38:06;97884.63;;;28.86;60.51
17635;BME280;8936;49.010;12.120;2022-08-01T07:40:32;97884.78;;;29.15;59.99
17635;BME280;8936;49.010;12.120;2022-08-01T07:42:59;97880.38;;;29.00;60.24
17635;BME280;8936;49.010;12.120;2022-08-01T07:45:25;97878.16;;;29.26;59.68
17635;BME280;8936;49.010;12.120;2022-08-01T07:47:54;97874.56;;;29.19;59.22
17635;BME280;8936;49.010;12.120;2022-08-01T07:50:20;97888.16;;;28.87;59.91
17635;BME280;8936;49.010;12.120;2022-08-01T07:52:46;97878.50;;;28.60;60.57
17635;BME280;8936;49.010;12.120;2022-08-01T07:55:13;97887.34;;;28.35;61.83
17635;BME280;8936;49.010;12.120;2022-08-01T07:57:39;97884.75;;;28.53;62.23
17635;BME280;8936;49.010;12.120;2022-08-01T08:00:06;97877.50;;;28.31;62.33
17635;BME280;8936;49.010;12.120;2022-08-01T08:02:33;97880.97;;;28.68;61.38
17635;BME280;8936;49.010;12.120;2022-08-01T08:05:01;97878.84;;;29.06;60.82
17635;BME280;8936;49.010;12.120;2022-08-01T08:07:28;97878.41;;;29.04;60.34
17635;BME280;8936;49.010;12.120;2022-08-01T08:09:55;97877.38;;;28.64;61.44
17635;BME280;8936;49.010;12.120;2022-08-01T08:12:21;97887.22;;;29.34;59.85
17635;BME280;8936;49.010;12.120;2022-08-01T08:14:48;97881.81;;;29.59;58.91
17635;BME280;8936;49.010;12.120;2022-08-01T08:17:14;97879.56;;;29.85;58.02
17635;BME280;8936;49.010;12.120;2022-08-01T08:19:40;97879.94;;;29.84;57.87
17635;BME280;8936;49.010;12.120;2022-08-01T08:22:08;97884.31;;;29.88;57.56
17635;BME280;8936;49.010;12.120;2022-08-01T08:24:35;97885.88;;;29.89;56.71
17635;BME280;8936;49.010;12.120;2022-08-01T08:27:02;97870.03;;;29.65;57.04
17635;BME280;8936;49.010;12.120;2022-08-01T08:29:28;97870.06;;;29.72;57.50
17635;BME280;8936;49.010;12.120;2022-08-01T08:31:57;97876.03;;;29.88;56.96
17635;BME280;8936;49.010;12.120;2022-08-01T08:34:23;97872.88;;;29.90;57.01
17635;BME280;8936;49.010;12.120;2022-08-01T08:36:50;97874.47;;;30.05;56.59
17635;BME280;8936;49.010;12.120;2022-08-01T08:39:18;97876.84;;;29.99;56.52
17635;BME280;8936;49.010;12.120;2022-08-01T08:41:44;97881.16;;;29.86;56.66
17635;BME280;8936;49.010;12.120;2022-08-01T08:44:10;97881.50;;;29.81;56.75
17635;BME280;8936;49.010;12.120;2022-08-01T08:46:39;97880.25;;;29.58;56.95
17635;BME280;8936;49.010;12.120;2022-08-01T08:49:06;97886.06;;;29.35;56.89
17635;BME280;8936;49.010;12.120;2022-08-01T08:51:33;97887.94;;;29.20;57.76
17635;BME280;8936;49.010;12.120;2022-08-01T08:54:00;97870.56;;;29.09;57.41
17635;BME280;8936;49.010;12.120;2022-08-01T08:56:28;97884.69;;;29.01;58.53
17635;BME280;8936;49.010;12.120;2022-08-01T08:58:59;97873.84;;;29.25;58.21
17635;BME280;8936;49.010;12.120;2022-08-01T09:01:26;97882.53;;;29.38;58.01
17635;BME280;8936;49.010;12.120;2022-08-01T09:03:52;97885.28;;;29.38;57.89
17635;BME280;8936;49.010;12.120;2022-08-01T09:06:19;97902.25;;;29.54;57.39
17635;BME280;8936;49.010;12.120;2022-08-01T09:08:46;97888.84;;;29.38;57.64
17635;BME280;8936;49.010;12.120;2022-08-01T09:11:12;97895.94;;;29.43;57.56
17635;BME280;8936;49.010;12.120;2022-08-01T09:13:40;97895.94;;;29.46;57.82
17635;BME280;8936;49.010;12.120;2022-08-01T09:16:06;97892.84;;;29.55;57.40
17635;BME280;8936;49.010;12.120;2022-08-01T09:18:33;97899.53;;;29.61;57.18
17635;BME280;8936;49.010;12.120;2022-08-01T09:21:10;97899.53;;;29.68;57.18
17635;BME280;8936;49.010;12.120;2022-08-01T09:23:38;97888.94;;;29.77;56.60
17635;BME280;8936;49.010;12.120;2022-08-01T09:26:07;97897.59;;;29.76;56.52
17635;BME280;8936;49.010;12.120;2022-08-01T09:28:33;97892.94;;;29.90;55.65
17635;BME280;8936;49.010;12.120;2022-08-01T09:31:06;97885.88;;;29.82;56.34
17635;BME280;8936;49.010;12.120;2022-08-01T09:33:46;97889.03;;;29.91;55.31
17635;BME280;8936;49.010;12.120;2022-08-01T09:36:12;97884.72;;;30.05;55.58
17635;BME280;8936;49.010;12.120;2022-08-01T09:38:39;97883.94;;;30.22;54.88
17635;BME280;8936;49.010;12.120;2022-08-01T09:41:05;97881.59;;;30.17;55.04
17635;BME280;8936;49.010;12.120;2022-08-01T09:43:32;97887.88;;;30.14;53.92
17635;BME280;8936;49.010;12.120;2022-08-01T09:45:59;97887.44;;;29.87;54.37
17635;BME280;8936;49.010;12.120;2022-08-01T09:48:27;97889.81;;;29.92;54.09
17635;BME280;8936;49.010;12.120;2022-08-01T09:50:53;97884.69;;;29.87;54.43
17635;BME280;8936;49.010;12.120;2022-08-01T09:53:20;97887.06;;;29.88;54.47
17635;BME280;8936;49.010;12.120;2022-08-01T09:55:46;97899.94;;;29.63;52.68
17635;BME280;8936;49.010;12.120;2022-08-01T09:58:16;97891.16;;;29.33;54.30
17635;BME280;8936;49.010;12.120;2022-08-01T10:00:42;97889.97;;;29.34;54.43
17635;BME280;8936;49.010;12.120;2022-08-01T10:03:20;97895.59;;;29.62;54.26
17635;BME280;8936;49.010;12.120;2022-08-01T10:05:48;97890.50;;;29.71;54.09
17635;BME280;8936;49.010;12.120;2022-08-01T10:08:15;97883.50;;;29.84;54.33
17635;BME280;8936;49.010;12.120;2022-08-01T10:10:42;97892.56;;;29.88;54.52
17635;BME280;8936;49.010;12.120;2022-08-01T10:13:28;97881.56;;;30.10;54.06
17635;BME280;8936;49.010;12.120;2022-08-01T10:15:55;97881.56;;;30.06;53.69
17635;BME280;8936;49.010;12.120;2022-08-01T10:18:22;97878.00;;;30.02;53.72
17635;BME280;8936;49.010;12.120;2022-08-01T10:20:50;97877.22;;;29.94;53.59
17635;BME280;8936;49.010;12.120;2022-08-01T10:23:16;97870.53;;;30.03;53.61
17635;BME280;8936;49.010;12.120;2022-08-01T10:25:43;97870.94;;;30.15;53.04
17635;BME280;8936;49.010;12.120;2022-08-01T10:28:13;97873.72;;;30.22;52.73
17635;BME280;8936;49.010;12.120;2022-08-01T10:30:41;97862.69;;;30.19;52.42
17635;BME280;8936;49.010;12.120;2022-08-01T10:33:07;97868.19;;;30.15;51.83
17635;BME280;8936;49.010;12.120;2022-08-01T10:35:34;97860.31;;;29.96;52.11
17635;BME280;8936;49.010;12.120;2022-08-01T10:38:02;97870.88;;;29.80;52.54
17635;BME280;8936;49.010;12.120;2022-08-01T10:40:29;97863.06;;;29.85;53.05
17635;BME280;8936;49.010;12.120;2022-08-01T10:42:55;97854.81;;;30.03;52.38
17635;BME280;8936;49.010;12.120;2022-08-01T10:45:22;97846.56;;;29.92;52.22
17635;BME280;8936;49.010;12.120;2022-08-01T10:47:51;97847.72;;;29.95;51.95
17635;BME280;8936;49.010;12.120;2022-08-01T10:50:21;97843.78;;;29.99;52.63
17635;BME280;8936;49.010;12.120;2022-08-01T10:53:10;97846.91;;;29.87;51.93
17635;BME280;8936;49.010;12.120;2022-08-01T10:55:49;97854.81;;;30.07;50.27
17635;BME280;8936;49.010;12.120;2022-08-01T10:58:25;97859.94;;;30.12;51.38
17635;BME280;8936;49.010;12.120;2022-08-01T11:03:36;97844.56;;;29.93;49.83
17635;BME280;8936;49.010;12.120;2022-08-01T11:06:03;97842.22;;;30.06;49.60
17635;BME280;8936;49.010;12.120;2022-08-01T11:08:30;97845.75;;;30.03;49.56
17635;BME280;8936;49.010;12.120;2022-08-01T11:11:01;97850.50;;;30.13;48.44
17635;BME280;8936;49.010;12.120;2022-08-01T11:16:24;97843.81;;;30.10;49.21
17635;BME280;8936;49.010;12.120;2022-08-01T11:18:51;97840.25;;;29.85;49.21
17635;BME280;8936;49.010;12.120;2022-08-01T11:21:17;97838.22;;;29.78;49.87
17635;BME280;8936;49.010;12.120;2022-08-01T11:23:48;97841.03;;;29.96;49.95
17635;BME280;8936;49.010;12.120;2022-08-01T11:26:15;97840.28;;;30.17;49.28
17635;BME280;8936;49.010;12.120;2022-08-01T11:28:42;97836.34;;;30.07;49.22
17635;BME280;8936;49.010;12.120;2022-08-01T11:31:27;97841.81;;;29.93;50.12
17635;BME280;8936;49.010;12.120;2022-08-01T11:33:54;97833.19;;;30.02;50.26
17635;BME280;8936;49.010;12.120;2022-08-01T11:36:20;97837.09;;;29.97;50.47
17635;BME280;8936;49.010;12.120;2022-08-01T11:38:49;97847.72;;;29.95;50.12
17635;BME280;8936;49.010;12.120;2022-08-01T11:41:35;97843.81;;;30.07;49.67
17635;BME280;8936;49.010;12.120;2022-08-01T11:44:03;97841.84;;;30.14;49.31
17635;BME280;8936;49.010;12.120;2022-08-01T11:46:48;97844.19;;;30.02;49.83
17635;BME280;8936;49.010;12.120;2022-08-01T11:49:25;97839.47;;;30.06;49.71
17635;BME280;8936;49.010;12.120;2022-08-01T11:52:04;97833.16;;;30.09;48.66
17635;BME280;8936;49.010;12.120;2022-08-01T11:54:33;97837.09;;;30.15;49.12
17635;BME280;8936;49.010;12.120;2022-08-01T11:57:01;97836.31;;;30.25;49.12
17635;BME280;8936;49.010;12.120;2022-08-01T11:59:28;97840.69;;;30.40;49.01
17635;BME280;8936;49.010;12.120;2022-08-01T12:01:54;97841.44;;;30.58;48.44
17635;BME280;8936;49.010;12.120;2022-08-01T12:04:21;97847.78;;;30.48;48.70
17635;BME280;8936;49.010;12.120;2022-08-01T12:06:47;97837.13;;;30.54;47.88
17635;BME280;8936;49.010;12.120;2022-08-01T12:09:17;97826.09;;;30.32;48.12
17635;BME280;8936;49.010;12.120;2022-08-01T12:11:46;97826.91;;;30.40;48.09
17635;BME280;8936;49.010;12.120;2022-08-01T12:14:17;97836.38;;;30.39;48.08
17635;BME280;8936;49.010;12.120;2022-08-01T12:16:53;97824.53;;;30.38;48.03
17635;BME280;8936;49.010;12.120;2022-08-01T12:19:20;97831.97;;;30.24;47.83
17635;BME280;8936;49.010;12.120;2022-08-01T12:24:28;97830.41;;;30.09;47.52
17635;BME280;8936;49.010;12.120;2022-08-01T12:26:56;97823.75;;;30.17;47.98
17635;BME280;8936;49.010;12.120;2022-08-01T12:29:33;97834.75;;;30.13;47.59
17635;BME280;8936;49.010;12.120;2022-08-01T12:31:59;97842.63;;;30.22;47.79
17635;BME280;8936;49.010;12.120;2022-08-01T12:34:27;97835.16;;;30.19;47.84
17635;BME280;8936;49.010;12.120;2022-08-01T12:36:54;97835.94;;;30.26;47.43
17635;BME280;8936;49.010;12.120;2022-08-01T12:39:20;97834.38;;;30.43;47.22
17635;BME280;8936;49.010;12.120;2022-08-01T12:41:47;97833.56;;;30.42;47.51
17635;BME280;8936;49.010;12.120;2022-08-01T12:44:14;97838.28;;;30.35;48.15
17635;BME280;8936;49.010;12.120;2022-08-01T12:46:41;97836.38;;;30.39;47.37
17635;BME280;8936;49.010;12.120;2022-08-01T12:49:08;97829.66;;;30.26;47.58
17635;BME280;8936;49.010;12.120;2022-08-01T12:51:34;97828.47;;;30.20;47.92
17635;BME280;8936;49.010;12.120;2022-08-01T12:54:01;97834.75;;;30.38;47.23
17635;BME280;8936;49.010;12.120;2022-08-01T12:56:32;97833.16;;;30.33;47.84
17635;BME280;8936;49.010;12.120;2022-08-01T12:58:59;97830.03;;;30.31;47.92
17635;BME280;8936;49.010;12.120;2022-08-01T13:01:27;97831.22;;;30.41;47.62
17635;BME280;8936;49.010;12.120;2022-08-01T13:03:57;97818.63;;;30.33;47.12
17635;BME280;8936;49.010;12.120;2022-08-01T13:06:23;97812.31;;;30.25;47.23
17635;BME280;8936;49.010;12.120;2022-08-01T13:08:54;97805.63;;;30.33;46.58
17635;BME280;8936;49.010;12.120;2022-08-01T13:11:20;97808.00;;;30.42;46.73